• Join FlightAware (Why Join?)
  • Login
  • US Flag 
11:24PM EDT


 

Airport Tracker/Info


-or-


 

Live Flight TrackerFlight Track Log ✈ EGF4279 ✈ 25-May-2013 ✈ KORD - KCMI

Flight Track Log - Related Links

Times and Time Zones

All times are in EDT time to prevent confusion due to time zone crossing. See the EGF4279 flight status page for this flight to view local times or setup timezone preferences in your user account.

Time Position Orientation Groundspeed Altitude Reporting Facility
EDT Latitude Longitude Course Direction KTS MPH feet Rate Location/Type
06:06PM 41.9333 -87.9000 188° South 170 196 1,500  Level Chicago TRACON
06:07PM 41.9000 -87.9000 180° South 200 230 3,300 1,980 Climbing Chicago TRACON
06:09PM 41.7163 -87.9587 180° South  Level Estimated
06:09PM 41.8136 -87.9189 189° South 229 264 6,100  Level Chicago Center
06:10PM 41.6279 -87.9759 192° South  Level Estimated
06:10PM 41.7394 -87.9417 193° South 263 303 8,400  Level Chicago Center
06:11PM 41.5395 -87.9931 189° South  Level Estimated
06:11PM 41.6475 -87.9656 191° South 280 322 11,000  Level Chicago Center
06:12PM 41.4510 -88.0101 188° South  Level FlightAware Approximate
06:12PM 41.5653 -87.9850 190° South 297 342 12,500  Level Chicago Center
06:13PM 41.4711 -88.0031 188° South 331 381 13,600 1,020 Climbing Chicago Center
06:14PM 41.3653 -88.0239 188° South 361 415 14,700 660 Climbing Chicago Center
06:15PM 41.2594 -88.0439 188° South 377 434 15,000 120 Climbing Chicago Center
06:16PM 41.1519 -88.0644 188° South 387 445 15,000 -360 Level Chicago Center
06:17PM 41.0472 -88.0856 189° South 384 442 14,300 -900 Descending Chicago Center
06:18PM 40.9436 -88.1047 188° South 380 437 13,200 -1,080 Descending Chicago Center
06:19PM 40.8433 -88.1239 188° South 371 427 12,100 -1,080 Descending Chicago Center
06:20PM 40.7461 -88.1419 188° South 359 413 11,100 -600 Descending Chicago Center
06:21PM 40.6278 -88.1656 189° South 358 412 10,900 -540 Descending Chicago Center
06:22PM 40.5331 -88.1822 188° South 354 407 10,100 -540 Descending Chicago Center
06:23PM 40.4414 -88.1983 188° South 343 395 9,900 -840 Descending Chicago Center
06:24PM 40.3658 -88.2122 188° South 300 345 8,400 -1,860 Descending Chicago Center
06:25PM 40.2914 -88.2278 189° South 276 318 6,100 -2,280 Descending Chicago Center